Time;durP1;ratioP1;P1;durP2;ratioP2;P2;SDS_P1;SDS_P2;PMS_P1;PMS_P2;Temp;Humidity;BMP_temperature;BMP_pressure;BME280_temperature;BME280_humidity;BME280_pressure;Samples;Min_cycle;Max_cycle;Signal;HPM_P1;HPM_P2
2021/12/17 00:00:06;;;;;;;30.90;13.13;;;;;;;12.30;48.06;103238.91;4437249;32;20129;-70
2021/12/17 00:03:09;;;;;;;29.00;13.13;;;;;;;12.42;47.96;103235.78;4435710;32;20269;-70
2021/12/17 00:05:19;;;;;;;23.62;11.45;;;;;;;12.18;47.92;103224.31;4436727;32;20490;-70
2021/12/17 00:07:45;;;;;;;25.73;13.15;;;;;;;12.12;48.47;103228.69;4434664;32;20052;-70
2021/12/17 00:10:15;;;;;;;30.48;13.00;;;;;;;12.16;48.23;103223.88;4436499;32;20042;-70
2021/12/17 00:12:42;;;;;;;27.10;11.65;;;;;;;12.38;47.96;103217.19;4438582;32;20083;-70
2021/12/17 00:15:09;;;;;;;27.27;12.07;;;;;;;12.22;48.13;103222.31;4436572;32;20081;-70
2021/12/17 00:17:39;;;;;;;29.40;12.80;;;;;;;12.16;48.19;103224.69;4434945;32;20065;-70
2021/12/17 00:53:05;;;;;;;24.73;12.20;;;;;;;12.04;47.87;103227.81;3983467;32;15021637;-69
2021/12/17 00:55:31;;;;;;;28.87;13.02;;;;;;;11.59;48.71;103219.63;4431728;32;20107;-70
2021/12/17 00:57:57;;;;;;;26.92;13.00;;;;;;;11.59;48.50;103214.81;4431254;32;20299;-70
2021/12/17 01:00:23;;;;;;;28.10;13.20;;;;;;;11.61;48.61;103220.88;4433672;32;20317;-70
2021/12/17 01:02:50;;;;;;;31.77;13.77;;;;;;;11.68;48.63;103214.53;4433342;32;20148;-70
2021/12/17 01:05:21;;;;;;;26.80;11.98;;;;;;;11.38;49.18;103206.09;4434680;32;20088;-70
2021/12/17 01:07:52;;;;;;;34.92;12.95;;;;;;;11.64;48.47;103210.84;4428499;32;20111;-70
2021/12/17 01:10:23;;;;;;;29.55;12.45;;;;;;;11.66;48.45;103203.63;4432011;32;20484;-70
2021/12/17 01:12:49;;;;;;;26.45;11.60;;;;;;;11.69;48.10;103207.69;4435213;32;20442;-70
2021/12/17 01:15:18;;;;;;;25.88;12.05;;;;;;;11.39;48.54;103199.25;4433988;32;20041;-70
2021/12/17 01:17:47;;;;;;;28.48;11.75;;;;;;;11.52;48.63;103205.44;4432572;32;20367;-70
2021/12/17 01:37:05;;;;;;;;;;;;;;;11.46;48.66;103213.47;4432454;32;20550;-69
2021/12/17 01:42:07;;;;;;;24.63;11.38;;;;;;;11.83;47.80;103210.66;3955629;32;15723516;-69
2021/12/17 01:44:36;;;;;;;23.83;10.05;;;;;;;11.83;47.80;103210.66;4428682;32;20086;-69
2021/12/17 01:47:04;;;;;;;23.05;9.90;;;;;;;11.52;48.19;103211.09;4415932;32;20069;-70
2021/12/17 02:00:40;;;;;;;21.35;8.90;;;;;;;11.26;48.53;103211.19;4431134;32;20479;-69
2021/12/17 02:03:07;;;;;;;23.33;9.23;;;;;;;11.17;48.47;103217.09;4433397;32;20073;-69
2021/12/17 02:05:34;;;;;;;20.37;9.63;;;;;;;11.13;48.64;103215.44;4435143;32;20038;-70
2021/12/17 02:08:01;;;;;;;22.45;10.45;;;;;;;11.32;48.27;103220.94;4435039;32;20088;-70
2021/12/17 02:11:16;;;;;;;19.12;9.65;;;;;;;11.16;48.42;103223.13;4431809;32;20042;-69
2021/12/17 02:32:06;;;;;;;22.02;9.05;;;;;;;11.52;47.88;103223.19;3954317;32;15727648;-69
2021/12/17 02:37:16;;;;;;;19.62;8.52;;;;;;;11.31;47.80;103224.94;3984823;32;15023907;-69
2021/12/17 02:42:25;;;;;;;19.42;9.25;;;;;;;11.31;47.80;103224.94;4439900;32;20404;-69
2021/12/17 02:45:40;;;;;;;18.15;8.75;;;;;;;11.10;48.04;103216.19;3984208;32;15027633;-69
2021/12/17 02:48:01;;;;;;;19.95;8.40;;;;;;;10.98;48.22;103219.28;4438554;32;20090;-69
2021/12/17 02:50:28;;;;;;;21.77;9.43;;;;;;;11.19;48.05;103211.91;4432948;32;20476;-69
2021/12/17 02:52:56;;;;;;;21.45;9.38;;;;;;;10.94;48.36;103209.94;4439556;32;21042;-70
2021/12/17 02:55:23;;;;;;;17.25;8.35;;;;;;;11.05;48.38;103228.62;4438035;32;20037;-71
2021/12/17 02:57:48;;;;;;;24.90;9.35;;;;;;;10.91;48.41;103221.97;4440122;32;20398;-70
2021/12/17 03:00:15;;;;;;;19.67;8.57;;;;;;;10.75;48.72;103219.34;4437987;32;20077;-69
2021/12/17 03:02:41;;;;;;;17.42;7.90;;;;;;;10.88;48.57;103219.91;4436960;32;20464;-69
2021/12/17 03:05:09;;;;;;;17.83;8.00;;;;;;;10.90;48.62;103218.38;4436301;32;20068;-69
2021/12/17 03:07:38;;;;;;;22.00;8.68;;;;;;;10.75;48.80;103210.09;4437078;32;20063;-69
2021/12/17 03:10:08;;;;;;;14.05;7.18;;;;;;;10.80;48.44;103212.59;4435391;32;20133;-70
2021/12/17 03:12:43;;;;;;;17.12;7.72;;;;;;;10.92;48.50;103218.00;4440336;32;20486;-70
2021/12/17 03:28:50;;;;;;;18.45;7.30;;;;;;;10.78;48.43;103209.31;3981821;32;15024216;-69
2021/12/17 03:31:17;;;;;;;16.77;6.70;;;;;;;10.83;48.76;103217.47;4438929;32;20025;-69
2021/12/17 03:33:46;;;;;;;14.43;7.57;;;;;;;10.72;48.86;103210.84;4434920;32;20085;-69
2021/12/17 03:36:15;;;;;;;13.85;6.35;;;;;;;10.86;48.47;103205.44;4439106;32;20461;-69
2021/12/17 03:38:43;;;;;;;18.77;7.12;;;;;;;10.84;48.56;103202.16;4435715;32;20096;-69
2021/12/17 03:43:50;;;;;;;16.98;7.30;;;;;;;11.17;48.06;103216.31;3992716;32;15024312;-69
2021/12/17 03:46:17;;;;;;;16.75;7.50;;;;;;;11.17;48.06;103216.31;4450751;32;20401;-69
2021/12/17 03:48:43;;;;;;;20.50;6.68;;;;;;;10.59;48.99;103206.63;4450475;32;20347;-69
2021/12/17 03:51:14;;;;;;;20.33;7.53;;;;;;;10.50;48.99;103206.09;4448890;32;20076;-69
2021/12/17 03:53:43;;;;;;;16.60;7.53;;;;;;;10.59;49.08;103212.25;4445864;32;20046;-69
2021/12/17 03:56:09;;;;;;;18.90;9.02;;;;;;;10.69;48.81;103194.69;4448150;32;20047;-69
2021/12/17 03:58:35;;;;;;;17.37;7.45;;;;;;;10.49;48.92;103196.03;4448088;32;20084;-69
2021/12/17 04:01:01;;;;;;;16.87;7.20;;;;;;;10.43;48.76;103203.16;4446628;32;20076;-69
2021/12/17 04:03:27;;;;;;;19.48;8.05;;;;;;;10.50;48.64;103211.72;4450051;32;20025;-69
2021/12/17 04:05:53;;;;;;;15.80;7.47;;;;;;;10.51;48.59;103221.78;4446117;32;20045;-69
2021/12/17 04:08:19;;;;;;;21.17;7.97;;;;;;;10.42;48.74;103205.16;4449397;32;20022;-69
2021/12/17 04:10:49;;;;;;;16.12;7.80;;;;;;;10.34;48.94;103205.44;4451767;32;20171;-70
2021/12/17 04:16:08;;;;;;;18.77;6.82;;;;;;;10.68;48.03;103212.81;3983229;32;15022580;-69
2021/12/17 04:18:37;;;;;;;17.90;6.82;;;;;;;10.53;48.36;103213.78;4438835;32;20100;-70
2021/12/17 04:21:05;;;;;;;13.75;6.00;;;;;;;10.62;48.66;103211.50;4436845;32;20052;-70
2021/12/17 04:23:32;;;;;;;17.30;7.03;;;;;;;10.51;48.73;103216.16;4437702;32;21236;-70
2021/12/17 04:25:58;;;;;;;18.60;7.18;;;;;;;10.44;48.94;103216.03;4435551;32;20100;-70
2021/12/17 04:28:24;;;;;;;17.08;6.80;;;;;;;10.45;48.87;103215.66;4435230;32;20714;-70
2021/12/17 04:30:50;;;;;;;18.20;7.65;;;;;;;10.37;48.69;103216.72;4437519;32;20107;-70
2021/12/17 04:33:17;;;;;;;16.37;6.80;;;;;;;10.36;48.66;103209.47;4439931;32;20465;-70
2021/12/17 04:35:42;;;;;;;13.90;6.53;;;;;;;10.31;48.83;103214.62;4439147;32;20077;-70
2021/12/17 04:38:10;;;;;;;15.38;6.53;;;;;;;10.21;48.92;103207.62;4435206;32;20044;-70
2021/12/17 04:40:38;;;;;;;15.68;6.55;;;;;;;10.44;48.81;103216.03;4439660;32;20022;-70
2021/12/17 04:43:43;;;;;;;20.37;7.03;;;;;;;10.30;48.81;103208.19;4438218;32;21113;-70
2021/12/17 04:46:13;;;;;;;13.68;5.90;;;;;;;10.33;48.84;103210.22;4436975;32;20068;-70
2021/12/17 04:59:37;;;;;;;;;;;;;;;10.23;48.81;103204.44;4435920;32;20042;-70
2021/12/17 05:02:03;;;;;;;19.15;6.05;;;;;;;10.61;48.13;103213.50;4435525;32;19971;-70
2021/12/17 05:04:29;;;;;;;12.05;5.35;;;;;;;10.23;48.90;103210.06;4439776;32;20104;-70
2021/12/17 05:06:55;;;;;;;10.57;5.20;;;;;;;10.20;48.95;103210.81;4439666;32;20060;-70
2021/12/17 05:09:30;;;;;;;13.85;6.12;;;;;;;10.13;49.03;103217.94;4435311;32;20030;-70
2021/12/17 05:20:28;;;;;;;;;;;;;;;10.18;48.79;103225.25;4435593;32;20081;-70
2021/12/17 05:22:57;;;;;;;13.32;6.10;;;;;;;10.59;47.83;103227.16;4437878;32;20307;-70
2021/12/17 05:25:26;;;;;;;15.68;6.32;;;;;;;10.09;48.53;103221.88;4435881;32;20085;-70
2021/12/17 05:27:55;;;;;;;13.85;6.60;;;;;;;9.98;48.89;103227.28;4428049;32;20169;-70
2021/12/17 05:30:22;;;;;;;12.75;6.35;;;;;;;10.17;49.07;103222.81;4424200;32;20429;-70
2021/12/17 05:32:48;;;;;;;13.62;5.72;;;;;;;10.16;49.05;103232.47;4418582;32;20088;-70
2021/12/17 05:35:14;;;;;;;12.02;5.40;;;;;;;9.95;49.18;103232.88;4426888;32;20919;-70
2021/12/17 05:37:40;;;;;;;13.52;5.43;;;;;;;10.04;49.11;103230.63;4428101;32;20049;-70
2021/12/17 05:40:06;;;;;;;10.40;4.85;;;;;;;9.97;49.30;103238.91;4425389;32;20067;-70
2021/12/17 05:42:31;;;;;;;14.10;6.18;;;;;;;10.05;48.99;103224.62;4425774;32;20380;-70
2021/12/17 05:45:06;;;;;;;14.95;6.47;;;;;;;9.95;49.02;103241.31;4431418;32;20117;-70
2021/12/17 05:47:32;;;;;;;18.62;6.22;;;;;;;10.06;48.73;103240.34;4428244;32;20130;-70
2021/12/17 05:49:58;;;;;;;13.15;6.37;;;;;;;10.05;48.54;103233.06;4422865;32;20049;-70
2021/12/17 05:52:24;;;;;;;16.23;6.55;;;;;;;10.16;48.54;103235.28;4426655;32;20033;-70
2021/12/17 05:54:50;;;;;;;13.20;6.20;;;;;;;10.09;48.60;103238.75;4428025;32;20077;-70
2021/12/17 05:57:16;;;;;;;13.57;6.15;;;;;;;10.13;48.85;103246.09;4427582;32;20073;-70
2021/12/17 05:59:42;;;;;;;14.50;6.35;;;;;;;10.13;48.51;103240.44;4423380;32;20049;-70
2021/12/17 06:02:11;;;;;;;17.08;7.20;;;;;;;10.26;48.73;103237.44;4426507;32;20118;-70
2021/12/17 06:04:37;;;;;;;15.18;7.18;;;;;;;10.40;48.46;103232.06;4429461;32;20033;-70
2021/12/17 06:07:04;;;;;;;15.95;7.97;;;;;;;10.46;48.24;103228.53;4427096;32;20113;-70
2021/12/17 06:09:31;;;;;;;15.25;8.13;;;;;;;10.45;48.13;103228.91;4424389;32;20473;-70
2021/12/17 06:11:57;;;;;;;18.17;8.32;;;;;;;10.38;48.15;103231.62;4426506;32;20454;-70
2021/12/17 06:14:23;;;;;;;16.45;7.65;;;;;;;10.37;48.13;103238.47;4427116;32;20102;-70
2021/12/17 06:16:48;;;;;;;18.83;7.50;;;;;;;10.32;47.76;103238.75;4426801;32;20558;-70
2021/12/17 06:19:17;;;;;;;16.08;7.32;;;;;;;10.39;47.82;103231.25;4425403;32;20124;-70
2021/12/17 06:21:43;;;;;;;18.42;6.55;;;;;;;10.31;47.78;103237.16;4425724;32;20134;-70
2021/12/17 06:24:10;;;;;;;14.87;6.60;;;;;;;10.23;48.28;103244.66;4425735;32;20046;-70
2021/12/17 06:26:35;;;;;;;14.55;6.25;;;;;;;10.17;48.47;103240.53;4424069;32;20107;-70
2021/12/17 06:29:01;;;;;;;13.05;5.60;;;;;;;10.02;48.55;103247.06;4424956;32;20060;-70
2021/12/17 06:31:27;;;;;;;18.50;6.28;;;;;;;10.13;48.44;103244.47;4425394;32;20140;-70
2021/12/17 06:33:53;;;;;;;11.68;5.78;;;;;;;10.14;48.56;103246.91;4426554;32;20094;-70
2021/12/17 06:36:19;;;;;;;14.40;5.70;;;;;;;10.19;48.63;103254.22;4427353;32;20053;-70
2021/12/17 06:38:45;;;;;;;16.00;6.47;;;;;;;10.15;48.87;103250.53;4425618;32;20101;-70
2021/12/17 06:41:11;;;;;;;15.38;6.40;;;;;;;10.43;48.28;103249.00;4426703;32;20094;-70
2021/12/17 06:43:39;;;;;;;11.98;5.60;;;;;;;10.37;48.57;103247.69;4425365;32;20753;-70
2021/12/17 06:46:28;;;;;;;12.80;6.15;;;;;;;10.55;48.39;103254.44;4422939;32;20624;-70
2021/12/17 06:49:15;;;;;;;16.25;5.87;;;;;;;10.74;48.28;103254.31;4426704;32;20060;-70
2021/12/17 06:54:52;;;;;;;14.87;6.90;;;;;;;11.11;47.36;103255.28;4422476;32;20077;-70
2021/12/17 07:00:09;;;;;;;23.38;9.07;;;;;;;11.81;45.96;103258.19;3990608;32;15027451;-70
2021/12/17 07:10:53;;;;;;;21.10;6.95;;;;;;;11.07;46.67;103268.50;4446486;32;20116;-70
2021/12/17 07:40:33;;;;;;;16.80;7.35;;;;;;;11.32;47.33;103282.97;4446994;32;20080;-70
2021/12/17 07:43:02;;;;;;;21.25;8.57;;;;;;;11.05;47.73;103282.16;4445400;32;20463;-70
2021/12/17 07:45:28;;;;;;;15.05;7.03;;;;;;;10.89;47.59;103272.28;4445596;32;20090;-70
2021/12/17 07:47:54;;;;;;;22.23;7.95;;;;;;;11.01;47.60;103283.31;4448050;32;20053;-70
2021/12/17 07:50:20;;;;;;;19.75;8.30;;;;;;;11.01;47.63;103283.31;4443879;32;20131;-70
2021/12/17 07:52:46;;;;;;;16.83;7.75;;;;;;;11.09;47.42;103287.84;4439909;32;20071;-70
2021/12/17 07:55:12;;;;;;;15.70;7.57;;;;;;;11.13;47.21;103295.16;4443165;32;20403;-70
2021/12/17 07:57:38;;;;;;;17.60;8.10;;;;;;;10.98;47.38;103301.00;4442778;32;20492;-70
2021/12/17 08:00:06;;;;;;;21.58;7.87;;;;;;;10.98;47.45;103303.81;4440493;32;20073;-70
2021/12/17 08:02:32;;;;;;;17.92;8.05;;;;;;;11.20;47.36;103300.91;4441657;32;20136;-70
2021/12/17 08:04:58;;;;;;;18.42;9.07;;;;;;;10.88;47.59;103287.53;4444012;32;20131;-70
2021/12/17 08:07:24;;;;;;;27.58;9.55;;;;;;;10.87;47.82;103302.81;4442439;32;20067;-70
2021/12/17 08:09:51;;;;;;;22.77;9.43;;;;;;;10.84;48.00;103306.41;4439966;32;20500;-69
2021/12/17 08:12:19;;;;;;;17.50;9.00;;;;;;;11.02;47.71;103301.84;4440129;32;20087;-69
2021/12/17 08:14:45;;;;;;;20.27;9.15;;;;;;;10.71;48.30;103310.63;4443197;32;20129;-69
2021/12/17 08:17:33;;;;;;;19.62;9.85;;;;;;;10.71;48.28;103310.63;4442158;32;20030;-69
2021/12/17 08:25:48;;;;;;;19.62;9.85;;;;;;;10.72;48.13;103312.25;4428565;32;20190;-69
2021/12/17 08:28:16;;;;;;;28.98;11.43;;;;;;;10.71;48.20;103321.87;4441576;32;20060;-70
2021/12/17 08:30:42;;;;;;;29.58;11.07;;;;;;;10.65;48.20;103315.75;4440429;32;20165;-69
2021/12/17 08:33:08;;;;;;;27.00;11.68;;;;;;;10.59;48.47;103325.72;4442481;32;20064;-70
2021/12/17 08:35:36;;;;;;;22.62;11.02;;;;;;;10.81;48.00;103324.06;4439646;32;20068;-70
2021/12/17 08:38:05;;;;;;;29.55;11.73;;;;;;;10.93;48.00;103323.84;4440524;32;20121;-70
2021/12/17 08:40:33;;;;;;;26.60;11.63;;;;;;;10.99;47.92;103322.34;4438318;32;20163;-70
2021/12/17 08:42:59;;;;;;;26.95;11.93;;;;;;;10.88;47.98;103324.16;4441302;32;20645;-70
2021/12/17 08:45:25;;;;;;;33.38;12.85;;;;;;;10.94;47.88;103323.47;4443401;32;20470;-70
2021/12/17 08:47:51;;;;;;;40.33;15.27;;;;;;;10.80;47.64;103330.91;4435122;32;20080;-69
2021/12/17 08:50:19;;;;;;;26.00;12.90;;;;;;;10.80;48.05;103336.53;4428713;32;20183;-69
2021/12/17 08:52:45;;;;;;;30.83;13.93;;;;;;;11.00;47.96;103338.87;4418055;32;20594;-69
2021/12/17 08:55:11;;;;;;;31.60;14.65;;;;;;;10.97;48.02;103336.81;4423201;32;20093;-69
2021/12/17 08:57:39;;;;;;;38.13;17.75;;;;;;;11.05;47.76;103334.91;4432014;32;20037;-69
2021/12/17 09:00:08;;;;;;;30.10;14.38;;;;;;;11.10;47.71;103338.22;4427733;32;20060;-70
2021/12/17 09:02:36;;;;;;;32.38;14.32;;;;;;;11.21;47.62;103346.81;4430059;32;20041;-69
2021/12/17 09:05:05;;;;;;;23.40;11.70;;;;;;;11.28;47.53;103349.75;4428850;32;21591;-70
2021/12/17 09:07:31;;;;;;;31.33;12.82;;;;;;;11.40;47.29;103341.87;4430815;32;20068;-70
2021/12/17 09:09:57;;;;;;;32.53;14.85;;;;;;;11.18;47.55;103348.41;4425254;32;20115;-71
2021/12/17 09:12:23;;;;;;;45.20;22.08;;;;;;;11.19;47.48;103350.03;4427465;32;20024;-70
2021/12/17 09:14:49;;;;;;;42.13;20.88;;;;;;;11.20;47.95;103359.31;4428780;32;20137;-70
2021/12/17 09:17:16;;;;;;;31.25;15.95;;;;;;;11.26;47.52;103344.47;4427653;32;20115;-68
2021/12/17 09:19:42;;;;;;;31.83;15.93;;;;;;;11.34;47.45;103351.87;4427365;32;20739;-69
2021/12/17 09:22:08;;;;;;;31.42;14.60;;;;;;;11.29;47.00;103351.38;4427483;32;20072;-69
2021/12/17 09:24:34;;;;;;;24.00;12.60;;;;;;;11.45;47.17;103360.47;4432129;32;20124;-69
2021/12/17 09:27:00;;;;;;;24.48;12.02;;;;;;;11.44;47.25;103358.84;4417531;32;20154;-69
2021/12/17 09:29:27;;;;;;;26.40;12.43;;;;;;;11.45;47.00;103347.16;4431016;32;20097;-71
2021/12/17 09:31:53;;;;;;;31.35;15.95;;;;;;;11.59;47.02;103364.31;4427920;32;20103;-70
2021/12/17 09:34:20;;;;;;;36.90;15.15;;;;;;;11.74;46.72;103357.69;4431222;32;20708;-70
2021/12/17 09:36:46;;;;;;;28.38;15.98;;;;;;;12.00;46.73;103362.44;4429870;32;20134;-70
2021/12/17 09:39:18;;;;;;;33.08;15.52;;;;;;;12.03;46.37;103370.16;4426325;32;20073;-70
2021/12/17 09:41:50;;;;;;;27.95;13.93;;;;;;;12.28;46.35;103365.59;4424784;32;20077;-70
2021/12/17 09:44:18;;;;;;;25.27;13.05;;;;;;;12.50;45.91;103375.91;4426212;32;20098;-70
2021/12/17 09:46:48;;;;;;;26.15;13.10;;;;;;;12.93;45.19;103368.59;4429702;32;20138;-70
2021/12/17 09:49:16;;;;;;;22.80;12.68;;;;;;;13.09;44.45;103369.16;4428327;32;20088;-70
2021/12/17 09:51:46;;;;;;;28.48;13.62;;;;;;;13.47;44.33;103375.06;4431112;32;20711;-69
2021/12/17 09:54:13;;;;;;;31.23;13.88;;;;;;;13.59;44.55;103377.56;4430565;32;20190;-69
2021/12/17 09:56:38;;;;;;;26.62;12.30;;;;;;;13.85;43.27;103374.50;4418826;32;20089;-69
2021/12/17 09:59:05;;;;;;;25.37;12.95;;;;;;;14.12;42.99;103377.81;4429938;32;20059;-69
2021/12/17 10:01:36;;;;;;;24.30;12.55;;;;;;;14.58;41.93;103375.13;4411511;32;20071;-70
2021/12/17 10:04:26;;;;;;;26.85;12.93;;;;;;;14.88;41.83;103370.69;4429691;32;20440;-69
2021/12/17 10:07:20;;;;;;;25.62;14.38;;;;;;;15.41;41.01;103379.19;4428549;32;20065;-70
2021/12/17 10:09:48;;;;;;;26.95;13.60;;;;;;;15.67;39.86;103375.84;4423796;32;20081;-69
2021/12/17 10:12:16;;;;;;;28.65;14.65;;;;;;;15.87;40.37;103377.00;4427671;32;20098;-70
2021/12/17 10:20:39;;;;;;;26.83;16.40;;;;;;;17.09;37.20;103381.09;3973816;32;15030771;-71
2021/12/17 10:23:08;;;;;;;30.67;14.38;;;;;;;17.09;37.20;103381.09;4427305;32;20073;-71
2021/12/17 10:25:37;;;;;;;30.73;15.35;;;;;;;16.74;38.17;103381.41;4429050;32;20489;-71
2021/12/17 10:28:06;;;;;;;36.58;16.87;;;;;;;16.64;38.06;103384.31;4427288;32;20103;-71
2021/12/17 10:30:35;;;;;;;37.05;17.70;;;;;;;16.91;38.28;103379.63;4429967;32;20033;-71
2021/12/17 10:33:05;;;;;;;35.92;16.65;;;;;;;17.04;38.39;103378.72;4430672;32;20470;-71
2021/12/17 10:35:33;;;;;;;28.70;15.82;;;;;;;17.14;37.75;103374.97;4430174;32;20095;-70
2021/12/17 10:38:03;;;;;;;28.25;14.80;;;;;;;17.29;37.43;103372.78;4429360;32;20069;-70
2021/12/17 10:40:34;;;;;;;27.27;14.35;;;;;;;17.47;36.95;103373.44;4430804;32;20077;-70
2021/12/17 10:43:09;;;;;;;28.58;15.25;;;;;;;17.39;37.60;103378.34;4425140;32;20072;-70
2021/12/17 10:45:42;;;;;;;27.15;15.00;;;;;;;17.56;37.32;103370.91;4428963;32;20073;-70
2021/12/17 10:56:53;;;;;;;27.33;15.07;;;;;;;17.31;38.44;103381.72;3978158;32;15029928;-70
2021/12/17 10:59:25;;;;;;;32.20;15.40;;;;;;;17.31;38.44;103381.72;4427601;32;20058;-70
2021/12/17 11:01:59;;;;;;;29.33;15.55;;;;;;;16.61;39.34;103377.44;4430830;32;20092;-70
2021/12/17 11:04:31;;;;;;;33.80;16.10;;;;;;;16.74;39.40;103366.34;4424735;32;20065;-70
2021/12/17 11:12:27;;;;;;;27.37;14.15;;;;;;;17.17;39.50;103374.12;3983676;32;15035553;-70
2021/12/17 11:15:19;;;;;;;24.65;13.18;;;;;;;17.17;39.50;103374.12;4439818;32;20077;-70
2021/12/17 11:17:51;;;;;;;37.10;15.00;;;;;;;16.70;40.33;103359.91;4440782;32;20064;-70
2021/12/17 11:22:56;;;;;;;26.80;13.98;;;;;;;17.32;39.61;103364.22;3944094;32;15731527;-70
2021/12/17 11:25:24;;;;;;;25.95;14.05;;;;;;;17.32;39.61;103364.22;4412583;32;21756;-70
2021/12/17 11:27:54;;;;;;;29.10;13.35;;;;;;;17.14;39.91;103352.19;4417239;32;20068;-70
2021/12/17 11:30:29;;;;;;;26.00;12.95;;;;;;;17.28;39.82;103354.09;4418191;32;20038;-70
2021/12/17 11:32:56;;;;;;;31.48;13.48;;;;;;;17.42;39.68;103343.34;4411429;32;20100;-70
2021/12/17 11:35:26;;;;;;;27.55;13.30;;;;;;;17.60;39.33;103346.84;4418498;32;20091;-70
2021/12/17 11:37:57;;;;;;;28.87;13.77;;;;;;;18.42;38.15;103350.25;4410855;32;20069;-71
2021/12/17 11:43:36;;;;;;;25.80;13.13;;;;;;;19.83;35.73;103352.16;3975978;32;15024029;-71
2021/12/17 11:46:06;;;;;;;35.55;15.73;;;;;;;20.49;34.43;103349.06;4424963;32;20465;-71
2021/12/17 11:48:35;;;;;;;26.85;14.05;;;;;;;20.90;34.07;103342.75;4429372;32;20871;-71
2021/12/17 11:51:09;;;;;;;26.80;13.43;;;;;;;21.07;33.46;103339.44;4427272;32;21081;-71
2021/12/17 11:53:59;;;;;;;26.67;13.30;;;;;;;21.24;32.80;103338.19;4423267;32;20045;-71
2021/12/17 11:56:55;;;;;;;23.50;12.77;;;;;;;21.65;32.59;103332.50;4430588;32;20037;-71
2021/12/17 12:04:44;;;;;;;24.02;13.43;;;;;;;23.14;30.04;103347.38;3984588;32;15022354;-71
2021/12/17 12:07:17;;;;;;;23.02;13.18;;;;;;;22.87;30.81;103334.81;4436156;32;20098;-71
2021/12/17 12:15:31;;;;;;;29.80;14.05;;;;;;;23.99;29.58;103335.69;3985518;32;15023723;-71
2021/12/17 12:23:37;;;;;;;22.45;13.38;;;;;;;24.61;28.69;103340.12;3986853;32;15027893;-70
2021/12/17 12:34:15;;;;;;;23.98;13.70;;;;;;;25.85;27.27;103336.28;3924478;32;15026457;-72
2021/12/17 12:55:36;;;;;;;33.55;14.87;;;;;;;25.71;26.72;103345.63;3977373;32;15021080;-71
2021/12/17 13:03:17;;;;;;;25.88;14.80;;;;;;;25.48;27.80;103354.91;3972317;32;15027112;-71
2021/12/17 13:05:46;;;;;;;30.65;16.42;;;;;;;25.48;27.80;103354.91;4423083;32;20033;-69
2021/12/17 13:08:15;;;;;;;35.80;17.83;;;;;;;24.59;28.78;103345.56;4423902;32;20069;-69
2021/12/17 13:10:44;;;;;;;33.50;18.52;;;;;;;24.94;28.60;103329.66;4427294;32;20133;-71
2021/12/17 13:16:02;;;;;;;35.58;17.70;;;;;;;25.32;27.95;103332.97;3976725;32;15024991;-71
2021/12/17 13:24:20;;;;;;;34.78;14.60;;;;;;;25.82;27.59;103332.28;4420347;32;20591;-71
2021/12/17 13:26:49;;;;;;;32.15;14.32;;;;;;;25.67;27.65;103334.22;4416898;32;20081;-71
2021/12/17 13:29:25;;;;;;;28.27;13.10;;;;;;;25.22;28.18;103328.44;4415059;32;20109;-71
2021/12/17 13:34:47;;;;;;;26.00;14.05;;;;;;;24.38;30.01;103338.59;3984581;32;15022709;-73
2021/12/17 13:37:20;;;;;;;26.12;14.00;;;;;;;24.38;30.01;103338.59;4435562;32;20460;-73
2021/12/17 13:39:55;;;;;;;28.70;14.82;;;;;;;23.33;31.00;103326.22;4435220;32;20092;-71
2021/12/17 13:42:36;;;;;;;35.08;14.98;;;;;;;22.80;31.84;103320.69;4422061;32;20084;-72
2021/12/17 13:45:08;;;;;;;37.83;15.13;;;;;;;22.40;32.75;103313.81;4434014;32;20093;-72
2021/12/17 13:47:40;;;;;;;37.13;15.15;;;;;;;22.16;33.22;103321.16;4421446;32;20397;-71
2021/12/17 13:50:44;;;;;;;32.28;14.87;;;;;;;21.88;33.78;103325.72;4415146;32;20068;-71
2021/12/17 13:53:15;;;;;;;47.72;18.08;;;;;;;21.57;33.75;103313.09;4439294;32;20221;-71
2021/12/17 13:55:49;;;;;;;38.72;17.30;;;;;;;21.44;34.75;103321.63;4432445;32;20099;-71
2021/12/17 13:58:28;;;;;;;39.88;15.80;;;;;;;21.29;34.99;103314.69;4433427;32;20809;-71
2021/12/17 14:00:58;;;;;;;30.85;14.00;;;;;;;21.03;35.19;103304.37;4437756;32;20084;-71
2021/12/17 14:03:33;;;;;;;32.33;15.15;;;;;;;20.95;35.19;103310.72;4434721;32;20426;-71
2021/12/17 14:06:19;;;;;;;38.88;15.65;;;;;;;20.55;36.44;103304.37;4434809;32;20065;-70
2021/12/17 14:08:46;;;;;;;34.78;17.12;;;;;;;20.53;36.34;103308.94;4437656;32;20438;-71
2021/12/17 14:13:55;;;;;;;32.63;16.98;;;;;;;20.25;36.61;103310.41;3975870;32;15027504;-71
2021/12/17 14:16:41;;;;;;;34.90;18.00;;;;;;;19.76;37.23;103308.66;4423644;32;20096;-71
2021/12/17 14:19:08;;;;;;;40.80;18.70;;;;;;;19.60;37.58;103308.56;4415008;32;20077;-71
2021/12/17 14:21:45;;;;;;;37.85;18.70;;;;;;;19.29;37.74;103305.13;4420987;32;21158;-71
2021/12/17 14:24:27;;;;;;;41.03;18.62;;;;;;;19.19;38.38;103313.84;4420625;32;20092;-71
2021/12/17 14:26:54;;;;;;;37.97;18.80;;;;;;;19.62;37.91;103311.78;4423076;32;20265;-71
2021/12/17 14:29:20;;;;;;;44.22;19.70;;;;;;;19.13;38.90;103305.00;4421823;32;20058;-71
2021/12/17 14:31:58;;;;;;;39.47;19.20;;;;;;;19.12;38.84;103300.50;4421121;32;20077;-71
2021/12/17 14:34:24;;;;;;;39.38;19.85;;;;;;;19.08;38.96;103314.06;4420834;32;20065;-72
2021/12/17 14:37:01;;;;;;;49.47;19.73;;;;;;;19.04;39.09;103312.50;4424454;32;20029;-72
2021/12/17 14:39:36;;;;;;;45.35;20.30;;;;;;;19.23;39.45;103311.72;4425712;32;20092;-71
2021/12/17 14:42:05;;;;;;;46.67;20.30;;;;;;;19.24;39.46;103313.38;4424624;32;20481;-72
2021/12/17 15:01:36;;;;;;;57.60;25.30;;;;;;;18.58;40.56;103307.59;4430246;32;20138;-70
2021/12/17 15:03:48;;;;;;;79.07;36.38;;;;;;;18.58;40.75;103306.78;4427638;32;20071;-69
2021/12/17 15:06:15;;;;;;;70.35;29.00;;;;;;;18.54;40.91;103303.19;4430983;32;20097;-69
2021/12/17 15:08:42;;;;;;;64.68;27.45;;;;;;;18.66;40.80;103305.44;4430776;32;20109;-71
2021/12/17 15:11:24;;;;;;;66.35;27.08;;;;;;;18.65;40.89;103318.09;4429661;32;20081;-70
2021/12/17 15:13:51;;;;;;;67.57;27.20;;;;;;;18.43;41.71;103317.63;4429085;32;20082;-69
2021/12/17 15:16:17;;;;;;;72.37;28.38;;;;;;;18.24;41.93;103321.16;4427591;32;20080;-71
2021/12/17 15:18:43;;;;;;;68.82;28.35;;;;;;;18.14;42.19;103319.28;4429640;32;20063;-70
2021/12/17 15:21:10;;;;;;;74.35;29.45;;;;;;;18.04;42.73;103317.34;4431074;32;20053;-70
2021/12/17 15:23:36;;;;;;;81.15;29.50;;;;;;;17.99;42.78;103308.50;4430616;32;20089;-71
2021/12/17 15:26:02;;;;;;;73.55;27.87;;;;;;;18.02;42.46;103314.16;4428358;32;20077;-69
2021/12/17 15:28:29;;;;;;;72.60;27.73;;;;;;;17.96;42.66;103315.03;4431701;32;20419;-70
2021/12/17 15:30:58;;;;;;;81.00;29.58;;;;;;;18.03;42.77;103314.94;4426221;32;20069;-69
2021/12/17 15:33:24;;;;;;;68.68;28.35;;;;;;;18.16;42.64;103319.62;4426476;32;20967;-70
2021/12/17 15:35:51;;;;;;;74.15;28.25;;;;;;;17.99;42.80;103305.63;4426165;32;20540;-69
2021/12/17 15:38:18;;;;;;;65.93;26.55;;;;;;;17.89;42.90;103308.19;4429523;32;20045;-69
2021/12/17 15:40:46;;;;;;;67.35;27.37;;;;;;;18.12;42.62;103312.38;4432381;32;20496;-70
2021/12/17 15:43:14;;;;;;;72.10;29.00;;;;;;;18.07;42.83;103312.88;4431030;32;20418;-70
2021/12/17 15:45:44;;;;;;;65.30;25.55;;;;;;;18.07;42.99;103307.94;4430418;32;20115;-70
2021/12/17 15:48:13;;;;;;;70.15;25.45;;;;;;;18.12;42.87;103303.81;4425738;32;20604;-71
2021/12/17 15:50:39;;;;;;;62.97;25.37;;;;;;;17.97;43.16;103302.44;4431587;32;20453;-71
2021/12/17 15:53:05;;;;;;;65.00;25.58;;;;;;;17.85;42.83;103307.44;4429115;32;20072;-70
2021/12/17 15:55:31;;;;;;;68.43;25.65;;;;;;;17.64;43.50;103304.06;4424285;32;20060;-71
2021/12/17 15:57:57;;;;;;;63.70;24.75;;;;;;;17.66;43.64;103298.75;4427961;32;20042;-70
2021/12/17 16:00:28;;;;;;;65.00;27.23;;;;;;;17.69;43.25;103303.59;4419005;32;20123;-70